createdAt,value
2017-11-30T00:01:02.897Z,1.08
2017-11-30T00:03:31.245Z,1.24
2017-11-30T00:05:59.590Z,1.40
2017-11-30T00:08:27.963Z,1.14
2017-11-30T00:10:56.301Z,1.24
2017-11-30T00:13:24.642Z,0.96
2017-11-30T00:15:52.991Z,1.06
2017-11-30T00:18:21.338Z,0.97
2017-11-30T00:20:49.703Z,0.91
2017-11-30T00:23:18.036Z,0.78
2017-11-30T00:25:46.403Z,0.93
2017-11-30T00:28:14.806Z,1.07
2017-11-30T00:30:43.182Z,0.87
2017-11-30T00:33:11.552Z,1.00
2017-11-30T00:35:39.908Z,0.97
2017-11-30T00:38:08.249Z,0.85
2017-11-30T00:40:36.604Z,1.06
2017-11-30T00:43:16.615Z,1.20
2017-11-30T00:45:44.956Z,1.22
2017-11-30T00:48:13.344Z,1.34
2017-11-30T00:50:41.736Z,1.41
2017-11-30T00:53:10.073Z,1.37
2017-11-30T00:55:38.418Z,1.49
2017-11-30T00:58:06.754Z,1.24
2017-11-30T01:00:35.091Z,1.09
2017-11-30T01:03:03.469Z,1.10
2017-11-30T01:05:31.812Z,1.15
2017-11-30T01:08:00.156Z,1.40
2017-11-30T01:10:28.504Z,1.07
2017-11-30T01:12:56.847Z,0.93
2017-11-30T01:15:25.228Z,0.86
2017-11-30T01:17:53.577Z,0.78
2017-11-30T01:20:21.921Z,0.68
2017-11-30T01:22:50.267Z,0.67
2017-11-30T01:25:18.612Z,0.45
2017-11-30T01:27:47.000Z,0.51
2017-11-30T01:30:15.348Z,0.52
2017-11-30T01:32:43.689Z,0.24
2017-11-30T01:35:12.032Z,0.14
2017-11-30T01:37:40.387Z,0.16
2017-11-30T01:40:08.762Z,0.02
2017-11-30T01:42:37.104Z,0.19
2017-11-30T01:45:05.465Z,0.14
2017-11-30T01:47:33.803Z,0.41
2017-11-30T01:50:02.175Z,0.35
2017-11-30T01:52:30.568Z,0.19
2017-11-30T01:54:58.908Z,0.18
2017-11-30T01:57:27.255Z,-0.11
2017-11-30T01:59:55.597Z,-0.10
2017-11-30T02:02:23.940Z,0.09
2017-11-30T02:04:52.321Z,0.34
2017-11-30T02:07:20.670Z,0.53
2017-11-30T02:09:49.028Z,0.24
2017-11-30T02:12:17.370Z,0.20
2017-11-30T02:14:45.719Z,0.38
2017-11-30T02:17:14.695Z,0.33
2017-11-30T02:19:43.039Z,0.28
2017-11-30T02:22:11.420Z,0.27
2017-11-30T02:24:39.769Z,0.27
2017-11-30T02:27:08.108Z,0.17
2017-11-30T02:29:36.450Z,0.34
2017-11-30T02:32:04.789Z,-0.17
2017-11-30T02:34:33.158Z,-0.34
2017-11-30T02:37:01.507Z,0.07
2017-11-30T02:39:29.860Z,0.42
2017-11-30T02:41:58.209Z,-0.04
2017-11-30T02:44:26.560Z,0.16
2017-11-30T02:46:54.904Z,0.45
2017-11-30T02:49:23.262Z,0.55
2017-11-30T02:51:51.636Z,0.27
2017-11-30T02:54:20.038Z,0.38
2017-11-30T02:56:48.381Z,0.48
2017-11-30T02:59:16.720Z,0.54
2017-11-30T03:01:45.056Z,0.56
2017-11-30T03:04:13.427Z,0.55
2017-11-30T03:06:41.778Z,0.68
2017-11-30T03:09:10.116Z,0.58
2017-11-30T03:11:38.456Z,0.70
2017-11-30T03:14:06.824Z,0.59
2017-11-30T03:16:35.360Z,0.36
2017-11-30T03:19:03.701Z,-0.04
2017-11-30T03:21:32.058Z,0.18
2017-11-30T03:24:00.395Z,0.33
2017-11-30T03:26:28.741Z,0.12
2017-11-30T03:28:57.116Z,0.04
2017-11-30T03:31:25.461Z,0.20
2017-11-30T03:33:53.812Z,0.33
2017-11-30T03:36:22.156Z,0.44
2017-11-30T03:38:50.529Z,0.35
2017-11-30T03:41:18.911Z,0.50
2017-11-30T03:43:47.257Z,0.56
2017-11-30T03:46:15.605Z,0.49
2017-11-30T03:48:43.956Z,0.70
2017-11-30T03:51:12.302Z,0.39
2017-11-30T03:53:40.704Z,0.56
2017-11-30T03:56:09.036Z,0.72
2017-11-30T03:58:37.389Z,0.50
2017-11-30T04:01:05.761Z,0.28
2017-11-30T04:03:34.109Z,0.59
2017-11-30T04:06:02.496Z,1.01
2017-11-30T04:08:30.847Z,1.10
2017-11-30T04:10:59.193Z,1.23
2017-11-30T04:13:27.540Z,1.60
2017-11-30T04:15:55.893Z,1.43
2017-11-30T04:18:24.277Z,1.54
2017-11-30T04:20:52.629Z,1.34
2017-11-30T04:23:20.980Z,1.63
2017-11-30T04:25:49.337Z,1.55
2017-11-30T04:28:17.689Z,1.57
2017-11-30T04:30:46.084Z,1.60
2017-11-30T04:33:14.436Z,2.10
2017-11-30T04:35:42.784Z,2.12
2017-11-30T04:38:11.136Z,1.99
2017-11-30T04:40:39.496Z,1.83
2017-11-30T04:43:07.916Z,1.90
2017-11-30T04:45:36.269Z,2.06
2017-11-30T04:48:04.614Z,2.12
2017-11-30T04:50:32.956Z,2.18
2017-11-30T04:53:01.441Z,1.91
2017-11-30T04:55:29.790Z,2.08
2017-11-30T04:57:58.136Z,2.32
2017-11-30T05:00:26.486Z,2.15
2017-11-30T05:02:54.829Z,1.80
2017-11-30T05:05:23.216Z,1.87
2017-11-30T05:07:51.569Z,1.96
2017-11-30T05:10:19.921Z,2.20
2017-11-30T05:12:48.269Z,2.33
2017-11-30T05:15:16.626Z,1.95
2017-11-30T05:17:45.000Z,1.92
2017-11-30T05:20:13.357Z,2.09
2017-11-30T05:22:41.706Z,2.59
2017-11-30T05:25:10.061Z,2.70
2017-11-30T05:27:38.441Z,2.73
2017-11-30T05:30:06.783Z,2.56
2017-11-30T05:32:35.128Z,2.70
2017-11-30T05:35:03.492Z,2.61
2017-11-30T05:37:31.839Z,2.56
2017-11-30T05:40:00.460Z,2.65
2017-11-30T05:42:28.838Z,2.67
2017-11-30T05:44:57.286Z,2.65
2017-11-30T05:47:25.632Z,2.77
2017-11-30T05:49:54.000Z,2.64
2017-11-30T05:52:22.349Z,2.79
2017-11-30T05:54:50.737Z,2.67
2017-11-30T05:57:19.081Z,2.77
2017-11-30T05:59:47.441Z,2.86
2017-11-30T06:02:15.795Z,2.96
2017-11-30T06:04:44.132Z,2.93
2017-11-30T06:07:12.512Z,2.75
2017-11-30T06:09:40.867Z,2.58
2017-11-30T06:12:09.212Z,2.95
2017-11-30T06:14:37.593Z,3.01
2017-11-30T06:17:05.956Z,2.62
2017-11-30T06:19:34.325Z,2.66
2017-11-30T06:22:02.693Z,2.82
2017-11-30T06:24:31.031Z,2.55
2017-11-30T06:26:59.422Z,2.68
2017-11-30T06:29:27.768Z,2.55
2017-11-30T06:31:56.112Z,2.50
2017-11-30T06:34:24.489Z,2.14
2017-11-30T06:36:56.272Z,2.28
2017-11-30T06:39:24.652Z,2.41
2017-11-30T06:41:53.042Z,2.26
2017-11-30T06:44:21.715Z,1.89
2017-11-30T06:46:50.127Z,2.32
2017-11-30T06:49:18.506Z,2.28
2017-11-30T06:51:46.864Z,2.18
2017-11-30T06:54:22.180Z,2.21
2017-11-30T06:56:50.556Z,2.10
2017-11-30T06:59:18.905Z,1.99
2017-11-30T07:01:47.267Z,2.24
2017-11-30T07:04:15.629Z,1.97
2017-11-30T07:06:44.004Z,2.35
2017-11-30T07:09:12.349Z,1.88
2017-11-30T07:11:40.702Z,2.39
2017-11-30T07:14:09.041Z,2.24
2017-11-30T07:16:37.391Z,2.38
2017-11-30T07:19:05.825Z,2.12
2017-11-30T07:21:34.180Z,2.33
2017-11-30T07:24:02.558Z,2.46
2017-11-30T07:26:30.901Z,2.43
2017-11-30T07:28:59.264Z,2.87
2017-11-30T07:31:27.650Z,2.86
2017-11-30T07:33:55.994Z,2.71
2017-11-30T07:36:24.340Z,2.23
2017-11-30T07:38:52.690Z,2.12
2017-11-30T07:41:21.074Z,2.51
2017-11-30T07:43:49.456Z,2.59
2017-11-30T07:46:17.808Z,2.63
2017-11-30T07:48:46.167Z,2.71
2017-11-30T07:51:14.515Z,2.31
2017-11-30T07:53:42.888Z,2.57
2017-11-30T07:56:11.422Z,2.40
2017-11-30T07:58:39.764Z,2.61
2017-11-30T08:01:08.120Z,2.14
2017-11-30T08:03:36.470Z,2.85
2017-11-30T08:06:04.816Z,2.74
2017-11-30T08:08:33.206Z,3.25
2017-11-30T08:11:01.553Z,3.14
2017-11-30T08:13:29.900Z,2.76
2017-11-30T08:15:58.266Z,2.85
2017-11-30T08:18:26.600Z,3.20
2017-11-30T08:20:54.976Z,2.99
2017-11-30T08:23:23.317Z,3.05
2017-11-30T08:25:51.664Z,3.06
2017-11-30T08:28:20.009Z,3.62
2017-11-30T08:30:48.373Z,4.16
2017-11-30T08:33:16.745Z,3.48
2017-11-30T08:35:45.089Z,3.96
2017-11-30T08:38:13.479Z,3.91
2017-11-30T08:40:41.862Z,4.14
2017-11-30T08:43:10.208Z,4.21
2017-11-30T08:45:38.595Z,4.17
2017-11-30T08:48:06.948Z,4.34
2017-11-30T08:50:35.303Z,4.71
2017-11-30T08:53:03.658Z,4.46
2017-11-30T08:55:32.006Z,4.67
2017-11-30T08:58:00.397Z,4.58
2017-11-30T09:00:28.743Z,4.62
2017-11-30T09:02:57.104Z,4.82
2017-11-30T09:05:25.459Z,4.88
2017-11-30T09:07:53.846Z,4.77
2017-11-30T09:10:22.240Z,4.65
2017-11-30T09:12:50.617Z,4.58
2017-11-30T09:15:18.960Z,4.39
2017-11-30T09:17:47.301Z,4.57
2017-11-30T09:20:15.650Z,4.31
2017-11-30T09:22:44.038Z,4.21
2017-11-30T09:25:12.388Z,3.98
2017-11-30T09:27:40.726Z,4.12
2017-11-30T09:30:09.095Z,3.42
2017-11-30T09:32:37.433Z,3.61
2017-11-30T09:35:05.822Z,3.86
2017-11-30T09:37:34.168Z,3.78
2017-11-30T09:40:02.517Z,3.41
2017-11-30T09:42:30.865Z,3.84
2017-11-30T09:44:59.216Z,3.36
2017-11-30T09:47:27.594Z,3.66
2017-11-30T09:49:55.935Z,3.55
2017-11-30T09:52:24.272Z,3.67
2017-11-30T09:54:52.618Z,3.62
2017-11-30T09:57:21.012Z,4.19
2017-11-30T09:59:49.364Z,3.94
2017-11-30T10:02:17.727Z,4.34
2017-11-30T10:04:46.200Z,4.20
2017-11-30T10:07:14.637Z,4.39
2017-11-30T10:09:42.995Z,4.25
2017-11-30T10:12:11.993Z,4.40
2017-11-30T10:14:40.744Z,4.55
2017-11-30T10:17:09.360Z,4.78
2017-11-30T10:19:38.060Z,5.09
2017-11-30T10:22:06.708Z,5.13
2017-11-30T10:24:35.429Z,5.10
2017-11-30T10:27:04.160Z,4.95
2017-11-30T10:29:32.813Z,5.09
2017-11-30T10:32:01.676Z,5.40
2017-11-30T10:34:30.131Z,5.81
2017-11-30T10:36:58.721Z,5.01
2017-11-30T10:39:27.258Z,5.81
2017-11-30T10:41:56.100Z,5.94
2017-11-30T10:44:24.818Z,5.82
2017-11-30T10:46:53.545Z,6.04
2017-11-30T10:49:22.989Z,5.81
2017-11-30T10:51:51.645Z,5.91
2017-11-30T10:54:20.394Z,6.17
2017-11-30T10:56:49.184Z,5.97
2017-11-30T10:59:17.936Z,6.12
2017-11-30T11:01:46.797Z,6.23
2017-11-30T11:04:15.647Z,5.68
2017-11-30T11:06:44.321Z,5.57
2017-11-30T11:09:12.955Z,6.06
2017-11-30T11:11:41.413Z,6.09
2017-11-30T11:14:09.821Z,5.95
2017-11-30T11:16:38.187Z,5.60
2017-11-30T11:19:06.781Z,5.27
2017-11-30T11:21:35.548Z,5.36
2017-11-30T11:24:04.401Z,5.18
2017-11-30T11:26:32.990Z,5.20
2017-11-30T11:29:01.675Z,5.57
2017-11-30T11:31:30.337Z,5.24
2017-11-30T11:33:59.144Z,5.05
2017-11-30T11:36:28.234Z,4.57
2017-11-30T11:38:57.882Z,4.86
2017-11-30T11:41:26.510Z,4.91
2017-11-30T11:43:55.255Z,4.94
2017-11-30T11:46:23.922Z,5.27
2017-11-30T11:48:52.353Z,5.78
2017-11-30T11:51:20.705Z,5.98
2017-11-30T11:53:49.381Z,5.86
2017-11-30T11:56:19.094Z,5.51
2017-11-30T11:58:47.775Z,5.69
2017-11-30T12:01:16.589Z,5.73
2017-11-30T12:03:45.249Z,5.47
2017-11-30T12:06:14.158Z,5.15
2017-11-30T12:08:42.914Z,5.14
2017-11-30T12:11:11.605Z,5.05
2017-11-30T12:13:40.485Z,5.34
2017-11-30T12:16:09.213Z,5.39
2017-11-30T12:18:37.965Z,6.00
2017-11-30T12:21:06.837Z,6.08
2017-11-30T12:23:35.730Z,5.84
2017-11-30T12:26:04.505Z,5.40
2017-11-30T12:28:33.099Z,5.65
2017-11-30T12:31:01.660Z,5.69
2017-11-30T12:33:30.458Z,5.50
2017-11-30T12:35:59.088Z,5.67
2017-11-30T12:38:27.986Z,5.94
2017-11-30T12:40:56.622Z,5.65
2017-11-30T12:43:25.197Z,5.78
2017-11-30T12:45:53.788Z,5.52
2017-11-30T12:48:22.141Z,5.60
2017-11-30T12:50:50.519Z,5.15
2017-11-30T12:53:18.882Z,5.51
2017-11-30T12:55:47.249Z,5.05
2017-11-30T12:58:15.604Z,5.65
2017-11-30T13:00:44.010Z,5.23
2017-11-30T13:03:12.528Z,5.61
2017-11-30T13:05:40.974Z,5.57
2017-11-30T13:08:09.359Z,5.81
2017-11-30T13:10:37.702Z,5.65
2017-11-30T13:13:06.065Z,5.54
2017-11-30T13:15:34.622Z,5.65
2017-11-30T13:18:03.083Z,5.04
2017-11-30T13:20:31.454Z,5.32
2017-11-30T13:22:59.847Z,5.16
2017-11-30T13:25:28.199Z,4.97
2017-11-30T13:27:56.572Z,5.40
2017-11-30T13:30:24.924Z,5.63
2017-11-30T13:32:53.271Z,5.70
2017-11-30T13:35:21.751Z,5.66
2017-11-30T13:37:50.100Z,5.17
2017-11-30T13:40:18.469Z,4.93
2017-11-30T13:42:46.992Z,4.82
2017-11-30T13:45:15.599Z,5.02
2017-11-30T13:47:43.971Z,5.46
2017-11-30T13:50:12.320Z,5.20
2017-11-30T13:52:43.574Z,5.26
2017-11-30T13:55:11.962Z,4.70
2017-11-30T13:57:40.547Z,5.24
2017-11-30T14:00:09.028Z,5.45
2017-11-30T14:02:37.371Z,5.50
2017-11-30T14:05:05.726Z,5.77
2017-11-30T14:07:34.075Z,5.54
2017-11-30T14:10:02.440Z,5.72
2017-11-30T14:12:30.815Z,5.50
2017-11-30T14:14:59.170Z,5.56
2017-11-30T14:17:27.512Z,5.43
2017-11-30T14:19:55.858Z,5.37
2017-11-30T14:22:24.209Z,5.03
2017-11-30T14:24:52.574Z,5.11
2017-11-30T14:27:20.928Z,4.78
2017-11-30T14:29:49.893Z,4.86
2017-11-30T14:32:18.559Z,4.98
2017-11-30T14:34:48.180Z,5.31
2017-11-30T14:37:17.925Z,5.59
2017-11-30T14:39:47.124Z,5.56
2017-11-30T14:42:17.518Z,5.04
2017-11-30T14:44:46.510Z,5.14
2017-11-30T14:47:15.312Z,5.03
2017-11-30T14:49:45.855Z,4.76
2017-11-30T14:52:14.620Z,4.89
2017-11-30T14:54:43.454Z,4.94
2017-11-30T14:57:14.046Z,4.57
2017-11-30T14:59:43.625Z,5.14
2017-11-30T15:02:12.087Z,4.79
2017-11-30T15:04:40.494Z,4.70
2017-11-30T15:07:08.921Z,4.76
2017-11-30T15:09:37.266Z,4.95
2017-11-30T15:12:05.603Z,5.32
2017-11-30T15:14:33.974Z,5.11
2017-11-30T15:17:02.314Z,5.56
2017-11-30T15:19:31.635Z,5.45
2017-11-30T15:21:59.986Z,5.06
2017-11-30T15:24:28.327Z,4.59
2017-11-30T15:26:56.667Z,4.68
2017-11-30T15:29:25.002Z,4.78
2017-11-30T15:31:53.477Z,4.23
2017-11-30T15:34:21.830Z,4.17
2017-11-30T15:36:50.175Z,4.80
2017-11-30T15:39:18.531Z,4.48
2017-11-30T15:41:46.896Z,4.38
2017-11-30T15:44:15.268Z,4.65
2017-11-30T15:46:43.609Z,4.71
2017-11-30T15:49:11.950Z,4.96
2017-11-30T15:51:40.294Z,4.70
2017-11-30T15:54:08.630Z,4.45
2017-11-30T15:56:37.020Z,4.22
2017-11-30T15:59:05.362Z,4.48
2017-11-30T16:01:33.707Z,5.02
2017-11-30T16:04:02.091Z,4.49
2017-11-30T16:06:33.664Z,4.77
2017-11-30T16:09:05.314Z,4.86
2017-11-30T16:11:35.291Z,5.14
2017-11-30T16:14:04.226Z,5.15
2017-11-30T16:16:32.585Z,4.89
2017-11-30T16:19:03.064Z,4.71
2017-11-30T16:21:31.411Z,4.80
2017-11-30T16:23:59.762Z,5.22
2017-11-30T16:26:29.166Z,5.19
2017-11-30T16:28:57.511Z,5.25
2017-11-30T16:31:26.315Z,4.87
2017-11-30T16:33:54.654Z,5.10
2017-11-30T16:36:24.640Z,5.01
2017-11-30T16:38:53.005Z,5.33
2017-11-30T16:41:21.395Z,5.01
2017-11-30T16:43:50.624Z,5.13
2017-11-30T16:46:20.556Z,4.98
2017-11-30T16:48:49.783Z,4.84
2017-11-30T16:51:18.180Z,4.67
2017-11-30T16:53:47.602Z,4.73
2017-11-30T16:56:23.135Z,5.12
2017-11-30T16:58:53.090Z,4.59
2017-11-30T17:01:23.012Z,4.56
2017-11-30T17:03:53.292Z,4.78
2017-11-30T17:06:23.628Z,4.41
2017-11-30T17:08:53.718Z,4.92
2017-11-30T17:11:25.711Z,4.85
2017-11-30T17:13:58.583Z,4.86
2017-11-30T17:16:28.361Z,5.25
2017-11-30T17:18:58.282Z,5.16
2017-11-30T17:21:28.448Z,5.05
2017-11-30T17:23:58.748Z,4.97
2017-11-30T17:26:29.076Z,4.60
2017-11-30T17:29:00.392Z,4.78
2017-11-30T17:31:31.670Z,4.93
2017-11-30T17:34:00.286Z,4.77
2017-11-30T17:36:28.750Z,4.61
2017-11-30T17:38:57.095Z,5.17
2017-11-30T17:41:25.713Z,5.15
2017-11-30T17:43:54.397Z,4.51
2017-11-30T17:46:24.307Z,4.59
2017-11-30T17:48:54.980Z,4.56
2017-11-30T17:51:25.168Z,4.73
2017-11-30T17:53:55.277Z,4.86
2017-11-30T17:56:24.054Z,4.82
2017-11-30T17:58:55.757Z,4.99
2017-11-30T18:01:24.793Z,4.27
2017-11-30T18:03:53.509Z,4.16
2017-11-30T18:06:24.725Z,4.30
2017-11-30T18:08:54.284Z,4.53
2017-11-30T18:11:23.082Z,4.71
2017-11-30T18:13:52.705Z,4.53
2017-11-30T18:16:23.169Z,4.84
2017-11-30T18:18:56.154Z,4.65
2017-11-30T18:21:27.245Z,4.74
2017-11-30T18:23:57.992Z,4.85
2017-11-30T18:26:28.216Z,4.88
2017-11-30T18:28:57.613Z,4.58
2017-11-30T18:31:28.233Z,4.41
2017-11-30T18:34:00.554Z,4.36
2017-11-30T18:36:32.538Z,4.44
2017-11-30T18:39:02.832Z,4.99
2017-11-30T18:41:34.143Z,4.88
2017-11-30T18:44:04.620Z,5.13
2017-11-30T18:46:36.061Z,5.40
2017-11-30T18:49:06.565Z,5.50
2017-11-30T18:51:37.684Z,5.44
2017-11-30T18:54:07.377Z,5.49
2017-11-30T18:56:38.547Z,5.43
2017-11-30T18:59:08.110Z,5.05
2017-11-30T19:01:36.865Z,5.22
2017-11-30T19:04:11.493Z,4.55
2017-11-30T19:06:40.776Z,5.21
2017-11-30T19:09:09.416Z,5.19
2017-11-30T19:11:37.821Z,5.35
2017-11-30T19:14:06.179Z,4.98
2017-11-30T19:16:34.663Z,4.79
2017-11-30T19:19:03.010Z,4.76
2017-11-30T19:21:31.371Z,4.84
2017-11-30T19:24:00.020Z,4.96
2017-11-30T19:26:28.695Z,4.94
2017-11-30T19:28:58.355Z,4.93
2017-11-30T19:31:28.480Z,5.13
2017-11-30T19:33:57.356Z,5.33
2017-11-30T19:36:27.472Z,5.36
2017-11-30T19:38:57.427Z,5.45
2017-11-30T19:41:31.619Z,5.43
2017-11-30T19:44:01.390Z,5.27
2017-11-30T19:46:38.498Z,5.16
2017-11-30T19:51:45.612Z,5.25
2017-11-30T19:54:17.948Z,5.27
2017-11-30T19:56:57.280Z,5.24
2017-11-30T19:59:30.976Z,5.44
2017-11-30T20:02:11.416Z,5.38
2017-11-30T20:04:49.712Z,5.42
2017-11-30T20:07:21.080Z,5.29
2017-11-30T20:10:00.254Z,5.02
2017-11-30T20:12:30.615Z,4.83
2017-11-30T20:17:39.630Z,5.03
2017-11-30T20:20:19.016Z,5.03
2017-11-30T20:25:25.921Z,5.08
2017-11-30T20:28:11.615Z,5.06
2017-11-30T20:30:42.913Z,5.16
2017-11-30T20:33:19.847Z,5.21
2017-11-30T20:35:56.076Z,5.38
2017-11-30T20:38:27.410Z,5.11
2017-11-30T20:43:39.756Z,5.24
2017-11-30T20:46:12.551Z,5.23
2017-11-30T20:48:45.313Z,4.96
2017-11-30T20:51:13.951Z,5.04
2017-11-30T20:53:42.659Z,5.01
2017-11-30T20:56:11.175Z,4.80
2017-11-30T20:58:39.524Z,4.67
2017-11-30T21:01:07.980Z,4.42
2017-11-30T21:03:38.657Z,4.36
2017-11-30T21:06:07.154Z,4.45
2017-11-30T21:08:57.139Z,4.86
2017-11-30T21:11:29.416Z,4.84
2017-11-30T21:13:59.316Z,4.55
2017-11-30T21:16:28.911Z,4.65
2017-11-30T21:19:01.882Z,4.48
2017-11-30T21:21:35.915Z,4.30
2017-11-30T21:24:04.558Z,3.95
2017-11-30T21:26:38.832Z,3.44
2017-11-30T21:29:12.187Z,3.29
2017-11-30T21:31:46.384Z,3.24
2017-11-30T21:34:19.977Z,3.11
2017-11-30T21:39:33.713Z,2.67
2017-11-30T21:42:13.348Z,2.39
2017-11-30T21:44:48.647Z,2.04
2017-11-30T21:47:23.302Z,2.13
2017-11-30T21:49:58.268Z,2.05
2017-11-30T21:52:29.819Z,1.78
2017-11-30T21:55:09.058Z,2.05
2017-11-30T21:57:40.426Z,1.61
2017-11-30T22:00:14.323Z,1.77
2017-11-30T22:02:46.305Z,1.80
2017-11-30T22:05:19.357Z,1.69
2017-11-30T22:07:51.117Z,1.75
2017-11-30T22:10:20.628Z,1.56
2017-11-30T22:12:57.898Z,1.49
2017-11-30T22:15:28.036Z,1.76
2017-11-30T22:17:57.257Z,1.55
2017-11-30T22:20:25.622Z,1.58
2017-11-30T22:22:54.156Z,1.45
2017-11-30T22:25:22.621Z,1.58
2017-11-30T22:27:51.188Z,1.45
2017-11-30T22:30:19.531Z,1.49
2017-11-30T22:32:47.868Z,1.58
2017-11-30T22:35:16.243Z,1.74
2017-11-30T22:37:44.633Z,1.58
2017-11-30T22:40:13.218Z,1.88
2017-11-30T22:42:41.571Z,1.84
2017-11-30T22:45:09.926Z,1.71
2017-11-30T22:47:38.802Z,1.85
2017-11-30T22:50:07.213Z,1.84
2017-11-30T22:52:35.686Z,1.75
2017-11-30T22:55:04.207Z,2.13
2017-11-30T22:57:32.878Z,2.24
2017-11-30T23:00:01.224Z,2.19
2017-11-30T23:02:29.566Z,2.34
2017-11-30T23:04:58.043Z,2.45
2017-11-30T23:07:26.393Z,2.38
2017-11-30T23:09:54.766Z,2.31
2017-11-30T23:12:23.102Z,2.37
2017-11-30T23:14:51.464Z,2.44
2017-11-30T23:17:19.822Z,2.39
2017-11-30T23:19:48.162Z,2.58
2017-11-30T23:22:16.537Z,2.49
2017-11-30T23:24:44.884Z,2.82
2017-11-30T23:27:13.230Z,2.61
2017-11-30T23:29:41.572Z,2.56
2017-11-30T23:32:09.916Z,2.08
2017-11-30T23:34:38.292Z,2.23
2017-11-30T23:37:06.631Z,2.24
2017-11-30T23:39:34.985Z,2.42
2017-11-30T23:42:03.319Z,2.40
2017-11-30T23:44:31.658Z,2.52
2017-11-30T23:47:00.032Z,2.49
2017-11-30T23:49:28.378Z,2.58
2017-11-30T23:51:56.759Z,2.42
2017-11-30T23:54:25.112Z,2.30
2017-11-30T23:56:53.447Z,2.47
2017-11-30T23:59:21.916Z,2.54
